sensor_id;sensor_type;location;lat;lon;timestamp;P1;durP1;ratioP1;P2;durP2;ratioP2
5684;SDS011;2865;53.114;9.130;2023-04-19T00:00:55;5.60;;;4.80;;
5684;SDS011;2865;53.114;9.130;2023-04-19T00:03:20;6.93;;;5.00;;
5684;SDS011;2865;53.114;9.130;2023-04-19T00:05:46;5.10;;;4.60;;
5684;SDS011;2865;53.114;9.130;2023-04-19T00:08:11;7.90;;;5.17;;
5684;SDS011;2865;53.114;9.130;2023-04-19T00:10:37;8.20;;;5.30;;
5684;SDS011;2865;53.114;9.130;2023-04-19T00:13:02;5.03;;;4.53;;
5684;SDS011;2865;53.114;9.130;2023-04-19T00:15:27;7.60;;;5.00;;
5684;SDS011;2865;53.114;9.130;2023-04-19T00:17:53;9.73;;;5.77;;
5684;SDS011;2865;53.114;9.130;2023-04-19T00:20:19;6.20;;;5.33;;
5684;SDS011;2865;53.114;9.130;2023-04-19T00:22:44;7.40;;;5.20;;
5684;SDS011;2865;53.114;9.130;2023-04-19T00:25:09;7.23;;;5.60;;
5684;SDS011;2865;53.114;9.130;2023-04-19T00:27:34;8.13;;;5.90;;
5684;SDS011;2865;53.114;9.130;2023-04-19T00:30:00;8.10;;;5.70;;
5684;SDS011;2865;53.114;9.130;2023-04-19T00:32:25;7.23;;;6.03;;
5684;SDS011;2865;53.114;9.130;2023-04-19T00:34:50;5.80;;;5.27;;
5684;SDS011;2865;53.114;9.130;2023-04-19T00:37:16;7.73;;;6.00;;
5684;SDS011;2865;53.114;9.130;2023-04-19T00:39:41;5.93;;;5.40;;
5684;SDS011;2865;53.114;9.130;2023-04-19T00:42:07;7.00;;;6.00;;
5684;SDS011;2865;53.114;9.130;2023-04-19T00:44:32;8.90;;;5.03;;
5684;SDS011;2865;53.114;9.130;2023-04-19T00:46:57;5.43;;;5.00;;
5684;SDS011;2865;53.114;9.130;2023-04-19T00:49:23;6.07;;;5.47;;
5684;SDS011;2865;53.114;9.130;2023-04-19T00:51:48;6.60;;;5.37;;
5684;SDS011;2865;53.114;9.130;2023-04-19T00:54:13;8.10;;;5.90;;
5684;SDS011;2865;53.114;9.130;2023-04-19T00:56:39;6.53;;;5.40;;
5684;SDS011;2865;53.114;9.130;2023-04-19T00:59:04;5.80;;;4.70;;
5684;SDS011;2865;53.114;9.130;2023-04-19T01:01:29;5.33;;;4.83;;
5684;SDS011;2865;53.114;9.130;2023-04-19T01:03:55;6.40;;;5.30;;
5684;SDS011;2865;53.114;9.130;2023-04-19T01:06:20;6.93;;;5.00;;
5684;SDS011;2865;53.114;9.130;2023-04-19T01:08:45;6.33;;;5.73;;
5684;SDS011;2865;53.114;9.130;2023-04-19T01:11:11;8.80;;;5.40;;
5684;SDS011;2865;53.114;9.130;2023-04-19T01:13:36;6.10;;;5.17;;
5684;SDS011;2865;53.114;9.130;2023-04-19T01:16:01;7.63;;;4.90;;
5684;SDS011;2865;53.114;9.130;2023-04-19T01:18:26;12.07;;;6.03;;
5684;SDS011;2865;53.114;9.130;2023-04-19T01:20:52;7.03;;;5.50;;
5684;SDS011;2865;53.114;9.130;2023-04-19T01:23:17;6.10;;;4.83;;
5684;SDS011;2865;53.114;9.130;2023-04-19T01:25:42;5.17;;;4.73;;
5684;SDS011;2865;53.114;9.130;2023-04-19T01:28:08;7.23;;;5.17;;
5684;SDS011;2865;53.114;9.130;2023-04-19T01:30:33;5.80;;;4.67;;
5684;SDS011;2865;53.114;9.130;2023-04-19T01:32:58;5.87;;;5.37;;
5684;SDS011;2865;53.114;9.130;2023-04-19T01:35:24;5.40;;;4.90;;
5684;SDS011;2865;53.114;9.130;2023-04-19T01:37:49;7.57;;;4.50;;
5684;SDS011;2865;53.114;9.130;2023-04-19T01:40:14;7.90;;;5.93;;
5684;SDS011;2865;53.114;9.130;2023-04-19T01:42:40;5.97;;;4.70;;
5684;SDS011;2865;53.114;9.130;2023-04-19T01:45:05;7.87;;;4.73;;
5684;SDS011;2865;53.114;9.130;2023-04-19T01:47:31;5.93;;;4.73;;
5684;SDS011;2865;53.114;9.130;2023-04-19T01:49:57;6.90;;;5.10;;
5684;SDS011;2865;53.114;9.130;2023-04-19T01:52:22;8.03;;;4.87;;
5684;SDS011;2865;53.114;9.130;2023-04-19T01:54:47;6.30;;;5.10;;
5684;SDS011;2865;53.114;9.130;2023-04-19T01:57:12;5.13;;;4.63;;
5684;SDS011;2865;53.114;9.130;2023-04-19T01:59:38;9.23;;;4.83;;
5684;SDS011;2865;53.114;9.130;2023-04-19T02:02:05;5.23;;;4.73;;
5684;SDS011;2865;53.114;9.130;2023-04-19T02:04:28;6.00;;;4.90;;
5684;SDS011;2865;53.114;9.130;2023-04-19T02:06:54;5.00;;;4.50;;
5684;SDS011;2865;53.114;9.130;2023-04-19T02:09:19;6.43;;;5.50;;
5684;SDS011;2865;53.114;9.130;2023-04-19T02:11:44;5.27;;;4.87;;
5684;SDS011;2865;53.114;9.130;2023-04-19T02:14:09;5.03;;;4.53;;
5684;SDS011;2865;53.114;9.130;2023-04-19T02:16:35;8.03;;;5.13;;
5684;SDS011;2865;53.114;9.130;2023-04-19T02:19:00;6.37;;;5.10;;
5684;SDS011;2865;53.114;9.130;2023-04-19T02:21:25;5.80;;;5.23;;
5684;SDS011;2865;53.114;9.130;2023-04-19T02:23:51;5.53;;;4.90;;
5684;SDS011;2865;53.114;9.130;2023-04-19T02:26:16;5.53;;;4.90;;
5684;SDS011;2865;53.114;9.130;2023-04-19T02:28:42;8.13;;;5.07;;
5684;SDS011;2865;53.114;9.130;2023-04-19T02:31:07;5.70;;;5.20;;
5684;SDS011;2865;53.114;9.130;2023-04-19T02:33:32;5.43;;;4.40;;
5684;SDS011;2865;53.114;9.130;2023-04-19T02:35:58;6.53;;;5.83;;
5684;SDS011;2865;53.114;9.130;2023-04-19T02:38:23;6.77;;;4.97;;
5684;SDS011;2865;53.114;9.130;2023-04-19T02:40:48;8.03;;;5.33;;
5684;SDS011;2865;53.114;9.130;2023-04-19T02:43:13;5.20;;;4.70;;
5684;SDS011;2865;53.114;9.130;2023-04-19T02:45:39;8.60;;;5.73;;
5684;SDS011;2865;53.114;9.130;2023-04-19T02:48:04;5.43;;;4.93;;
5684;SDS011;2865;53.114;9.130;2023-04-19T02:50:30;5.60;;;5.10;;
5684;SDS011;2865;53.114;9.130;2023-04-19T02:52:56;5.83;;;5.33;;
5684;SDS011;2865;53.114;9.130;2023-04-19T02:55:20;7.17;;;5.07;;
5684;SDS011;2865;53.114;9.130;2023-04-19T02:57:46;6.50;;;5.00;;
5684;SDS011;2865;53.114;9.130;2023-04-19T03:00:11;5.50;;;4.53;;
5684;SDS011;2865;53.114;9.130;2023-04-19T03:02:37;5.30;;;4.80;;
5684;SDS011;2865;53.114;9.130;2023-04-19T03:05:03;9.23;;;5.13;;
5684;SDS011;2865;53.114;9.130;2023-04-19T03:07:28;6.67;;;5.17;;
5684;SDS011;2865;53.114;9.130;2023-04-19T03:09:54;5.87;;;5.00;;
5684;SDS011;2865;53.114;9.130;2023-04-19T03:12:19;6.50;;;4.83;;
5684;SDS011;2865;53.114;9.130;2023-04-19T03:14:44;8.50;;;4.90;;
5684;SDS011;2865;53.114;9.130;2023-04-19T03:17:10;14.03;;;5.03;;
5684;SDS011;2865;53.114;9.130;2023-04-19T03:19:35;5.67;;;5.03;;
5684;SDS011;2865;53.114;9.130;2023-04-19T03:22:00;6.67;;;5.50;;
5684;SDS011;2865;53.114;9.130;2023-04-19T03:24:26;7.17;;;4.57;;
5684;SDS011;2865;53.114;9.130;2023-04-19T03:26:51;5.73;;;5.10;;
5684;SDS011;2865;53.114;9.130;2023-04-19T03:29:16;5.73;;;5.23;;
5684;SDS011;2865;53.114;9.130;2023-04-19T03:31:41;5.73;;;5.23;;
5684;SDS011;2865;53.114;9.130;2023-04-19T03:34:07;6.63;;;5.17;;
5684;SDS011;2865;53.114;9.130;2023-04-19T03:36:32;7.20;;;4.93;;
5684;SDS011;2865;53.114;9.130;2023-04-19T03:38:58;6.40;;;4.90;;
5684;SDS011;2865;53.114;9.130;2023-04-19T03:41:24;5.43;;;4.90;;
5684;SDS011;2865;53.114;9.130;2023-04-19T03:43:48;10.77;;;5.00;;
5684;SDS011;2865;53.114;9.130;2023-04-19T03:46:13;7.17;;;4.87;;
5684;SDS011;2865;53.114;9.130;2023-04-19T03:48:39;6.20;;;4.83;;
5684;SDS011;2865;53.114;9.130;2023-04-19T03:51:04;6.10;;;5.47;;
5684;SDS011;2865;53.114;9.130;2023-04-19T03:53:29;5.83;;;5.20;;
5684;SDS011;2865;53.114;9.130;2023-04-19T03:55:55;5.87;;;4.70;;
5684;SDS011;2865;53.114;9.130;2023-04-19T03:58:20;6.00;;;4.93;;
5684;SDS011;2865;53.114;9.130;2023-04-19T04:00:45;5.70;;;4.77;;
5684;SDS011;2865;53.114;9.130;2023-04-19T04:03:11;8.00;;;5.30;;
5684;SDS011;2865;53.114;9.130;2023-04-19T04:05:36;5.47;;;4.53;;
5684;SDS011;2865;53.114;9.130;2023-04-19T04:08:01;8.10;;;5.30;;
5684;SDS011;2865;53.114;9.130;2023-04-19T04:10:27;5.83;;;5.23;;
5684;SDS011;2865;53.114;9.130;2023-04-19T04:12:52;6.00;;;4.83;;
5684;SDS011;2865;53.114;9.130;2023-04-19T04:15:17;8.27;;;4.70;;
5684;SDS011;2865;53.114;9.130;2023-04-19T04:17:42;6.50;;;5.87;;
5684;SDS011;2865;53.114;9.130;2023-04-19T04:20:08;7.27;;;5.17;;
5684;SDS011;2865;53.114;9.130;2023-04-19T04:22:34;5.07;;;4.50;;
5684;SDS011;2865;53.114;9.130;2023-04-19T04:24:59;10.47;;;5.50;;
5684;SDS011;2865;53.114;9.130;2023-04-19T04:27:24;5.27;;;4.80;;
5684;SDS011;2865;53.114;9.130;2023-04-19T04:29:50;6.77;;;5.33;;
5684;SDS011;2865;53.114;9.130;2023-04-19T04:32:15;5.57;;;5.07;;
5684;SDS011;2865;53.114;9.130;2023-04-19T04:34:40;5.53;;;5.03;;
5684;SDS011;2865;53.114;9.130;2023-04-19T04:37:06;5.43;;;4.83;;
5684;SDS011;2865;53.114;9.130;2023-04-19T04:39:31;4.60;;;4.17;;
5684;SDS011;2865;53.114;9.130;2023-04-19T04:41:56;6.00;;;5.40;;
5684;SDS011;2865;53.114;9.130;2023-04-19T04:44:22;5.40;;;4.90;;
5684;SDS011;2865;53.114;9.130;2023-04-19T04:46:47;6.43;;;5.03;;
5684;SDS011;2865;53.114;9.130;2023-04-19T04:49:12;7.47;;;5.70;;
5684;SDS011;2865;53.114;9.130;2023-04-19T04:51:37;10.40;;;5.57;;
5684;SDS011;2865;53.114;9.130;2023-04-19T04:54:03;5.70;;;5.13;;
5684;SDS011;2865;53.114;9.130;2023-04-19T04:56:29;8.03;;;5.03;;
5684;SDS011;2865;53.114;9.130;2023-04-19T04:58:54;5.73;;;5.20;;
5684;SDS011;2865;53.114;9.130;2023-04-19T05:01:20;6.33;;;5.40;;
5684;SDS011;2865;53.114;9.130;2023-04-19T05:03:44;5.43;;;4.93;;
5684;SDS011;2865;53.114;9.130;2023-04-19T05:06:10;14.07;;;6.50;;
5684;SDS011;2865;53.114;9.130;2023-04-19T05:08:35;5.77;;;5.27;;
5684;SDS011;2865;53.114;9.130;2023-04-19T05:11:00;6.07;;;5.47;;
5684;SDS011;2865;53.114;9.130;2023-04-19T05:13:26;6.57;;;5.67;;
5684;SDS011;2865;53.114;9.130;2023-04-19T05:15:51;6.53;;;5.30;;
5684;SDS011;2865;53.114;9.130;2023-04-19T05:18:16;8.80;;;5.33;;
5684;SDS011;2865;53.114;9.130;2023-04-19T05:20:42;6.40;;;5.10;;
5684;SDS011;2865;53.114;9.130;2023-04-19T05:23:07;8.60;;;5.63;;
5684;SDS011;2865;53.114;9.130;2023-04-19T05:25:32;6.10;;;5.50;;
5684;SDS011;2865;53.114;9.130;2023-04-19T05:27:58;6.13;;;5.53;;
5684;SDS011;2865;53.114;9.130;2023-04-19T05:30:23;6.40;;;5.17;;
5684;SDS011;2865;53.114;9.130;2023-04-19T05:32:48;10.50;;;5.73;;
5684;SDS011;2865;53.114;9.130;2023-04-19T05:35:14;6.00;;;5.40;;
5684;SDS011;2865;53.114;9.130;2023-04-19T05:37:40;7.40;;;6.03;;
5684;SDS011;2865;53.114;9.130;2023-04-19T05:40:06;6.50;;;5.60;;
5684;SDS011;2865;53.114;9.130;2023-04-19T05:42:31;11.23;;;6.27;;
5684;SDS011;2865;53.114;9.130;2023-04-19T05:44:57;12.30;;;5.37;;
5684;SDS011;2865;53.114;9.130;2023-04-19T05:47:23;9.30;;;5.27;;
5684;SDS011;2865;53.114;9.130;2023-04-19T05:49:49;6.83;;;5.87;;
5684;SDS011;2865;53.114;9.130;2023-04-19T05:52:16;8.53;;;5.57;;
5684;SDS011;2865;53.114;9.130;2023-04-19T05:54:42;7.43;;;5.43;;
5684;SDS011;2865;53.114;9.130;2023-04-19T05:57:10;8.40;;;5.17;;
5684;SDS011;2865;53.114;9.130;2023-04-19T05:59:38;5.97;;;5.40;;
5684;SDS011;2865;53.114;9.130;2023-04-19T06:02:04;5.53;;;4.40;;
5684;SDS011;2865;53.114;9.130;2023-04-19T06:04:29;9.47;;;5.17;;
5684;SDS011;2865;53.114;9.130;2023-04-19T06:06:56;10.40;;;5.13;;
5684;SDS011;2865;53.114;9.130;2023-04-19T06:09:21;7.07;;;5.17;;
5684;SDS011;2865;53.114;9.130;2023-04-19T06:11:47;6.30;;;5.10;;
5684;SDS011;2865;53.114;9.130;2023-04-19T06:14:12;6.30;;;5.17;;
5684;SDS011;2865;53.114;9.130;2023-04-19T06:16:40;6.17;;;5.10;;
5684;SDS011;2865;53.114;9.130;2023-04-19T06:19:05;6.33;;;5.03;;
5684;SDS011;2865;53.114;9.130;2023-04-19T06:21:31;6.00;;;5.37;;
5684;SDS011;2865;53.114;9.130;2023-04-19T06:23:58;4.80;;;4.40;;
5684;SDS011;2865;53.114;9.130;2023-04-19T06:26:23;5.53;;;4.57;;
5684;SDS011;2865;53.114;9.130;2023-04-19T06:28:49;4.60;;;4.30;;
5684;SDS011;2865;53.114;9.130;2023-04-19T06:31:15;7.10;;;4.47;;
5684;SDS011;2865;53.114;9.130;2023-04-19T06:33:41;4.87;;;4.37;;
5684;SDS011;2865;53.114;9.130;2023-04-19T06:36:06;7.20;;;4.47;;
5684;SDS011;2865;53.114;9.130;2023-04-19T06:38:32;4.30;;;4.00;;
5684;SDS011;2865;53.114;9.130;2023-04-19T06:40:58;5.67;;;4.00;;
5684;SDS011;2865;53.114;9.130;2023-04-19T06:43:24;4.10;;;3.80;;
5684;SDS011;2865;53.114;9.130;2023-04-19T06:45:57;4.40;;;4.00;;
5684;SDS011;2865;53.114;9.130;2023-04-19T06:48:24;4.03;;;3.73;;
5684;SDS011;2865;53.114;9.130;2023-04-19T06:50:50;5.40;;;3.47;;
5684;SDS011;2865;53.114;9.130;2023-04-19T06:53:17;3.50;;;3.20;;
5684;SDS011;2865;53.114;9.130;2023-04-19T06:55:43;4.17;;;3.37;;
5684;SDS011;2865;53.114;9.130;2023-04-19T06:58:09;5.23;;;3.13;;
5684;SDS011;2865;53.114;9.130;2023-04-19T07:00:35;3.50;;;3.20;;
5684;SDS011;2865;53.114;9.130;2023-04-19T07:03:00;3.07;;;2.87;;
5684;SDS011;2865;53.114;9.130;2023-04-19T07:05:26;4.10;;;3.40;;
5684;SDS011;2865;53.114;9.130;2023-04-19T07:07:51;5.00;;;3.03;;
5684;SDS011;2865;53.114;9.130;2023-04-19T07:10:17;2.60;;;2.37;;
5684;SDS011;2865;53.114;9.130;2023-04-19T07:12:43;8.50;;;3.33;;
5684;SDS011;2865;53.114;9.130;2023-04-19T07:15:09;2.67;;;2.47;;
5684;SDS011;2865;53.114;9.130;2023-04-19T07:17:36;5.80;;;2.80;;
5684;SDS011;2865;53.114;9.130;2023-04-19T07:20:01;3.20;;;2.90;;
5684;SDS011;2865;53.114;9.130;2023-04-19T07:22:27;3.10;;;2.83;;
5684;SDS011;2865;53.114;9.130;2023-04-19T07:24:53;2.80;;;2.60;;
5684;SDS011;2865;53.114;9.130;2023-04-19T07:27:19;2.30;;;2.20;;
5684;SDS011;2865;53.114;9.130;2023-04-19T07:29:44;2.97;;;2.37;;
5684;SDS011;2865;53.114;9.130;2023-04-19T07:32:11;2.03;;;1.90;;
5684;SDS011;2865;53.114;9.130;2023-04-19T07:34:36;4.70;;;2.53;;
5684;SDS011;2865;53.114;9.130;2023-04-19T07:37:01;4.93;;;2.80;;
5684;SDS011;2865;53.114;9.130;2023-04-19T07:39:28;2.43;;;2.23;;
5684;SDS011;2865;53.114;9.130;2023-04-19T07:41:53;2.33;;;2.13;;
5684;SDS011;2865;53.114;9.130;2023-04-19T07:44:19;3.73;;;2.27;;
5684;SDS011;2865;53.114;9.130;2023-04-19T07:46:44;2.40;;;2.20;;
5684;SDS011;2865;53.114;9.130;2023-04-19T07:49:10;2.10;;;2.00;;
5684;SDS011;2865;53.114;9.130;2023-04-19T07:51:36;5.70;;;2.00;;
5684;SDS011;2865;53.114;9.130;2023-04-19T07:54:02;2.13;;;2.03;;
5684;SDS011;2865;53.114;9.130;2023-04-19T07:56:28;3.90;;;2.57;;
5684;SDS011;2865;53.114;9.130;2023-04-19T07:58:55;2.00;;;1.90;;
5684;SDS011;2865;53.114;9.130;2023-04-19T08:01:20;1.90;;;1.80;;
5684;SDS011;2865;53.114;9.130;2023-04-19T08:03:46;2.50;;;2.33;;
5684;SDS011;2865;53.114;9.130;2023-04-19T08:06:12;2.53;;;2.00;;
5684;SDS011;2865;53.114;9.130;2023-04-19T08:08:38;3.57;;;1.90;;
5684;SDS011;2865;53.114;9.130;2023-04-19T08:11:04;2.37;;;2.17;;
5684;SDS011;2865;53.114;9.130;2023-04-19T08:13:30;2.10;;;1.90;;
5684;SDS011;2865;53.114;9.130;2023-04-19T08:15:55;2.40;;;1.93;;
5684;SDS011;2865;53.114;9.130;2023-04-19T08:18:21;1.90;;;1.80;;
5684;SDS011;2865;53.114;9.130;2023-04-19T08:20:46;3.53;;;2.87;;
5684;SDS011;2865;53.114;9.130;2023-04-19T08:23:13;2.13;;;2.03;;
5684;SDS011;2865;53.114;9.130;2023-04-19T08:25:39;3.07;;;2.20;;
5684;SDS011;2865;53.114;9.130;2023-04-19T08:28:04;3.90;;;2.20;;
5684;SDS011;2865;53.114;9.130;2023-04-19T08:30:30;1.87;;;1.77;;
5684;SDS011;2865;53.114;9.130;2023-04-19T08:32:56;2.13;;;2.03;;
5684;SDS011;2865;53.114;9.130;2023-04-19T08:35:22;2.57;;;2.37;;
5684;SDS011;2865;53.114;9.130;2023-04-19T08:37:48;2.50;;;2.03;;
5684;SDS011;2865;53.114;9.130;2023-04-19T08:40:14;2.13;;;2.03;;
5684;SDS011;2865;53.114;9.130;2023-04-19T08:42:41;2.53;;;2.43;;
5684;SDS011;2865;53.114;9.130;2023-04-19T08:45:07;2.80;;;2.27;;
5684;SDS011;2865;53.114;9.130;2023-04-19T08:47:33;4.60;;;1.50;;
5684;SDS011;2865;53.114;9.130;2023-04-19T08:50:00;2.03;;;1.83;;
5684;SDS011;2865;53.114;9.130;2023-04-19T08:52:25;1.83;;;1.73;;
5684;SDS011;2865;53.114;9.130;2023-04-19T08:54:53;2.00;;;1.80;;
5684;SDS011;2865;53.114;9.130;2023-04-19T08:57:19;2.07;;;1.97;;
5684;SDS011;2865;53.114;9.130;2023-04-19T08:59:44;3.97;;;2.37;;
5684;SDS011;2865;53.114;9.130;2023-04-19T09:02:11;2.57;;;1.73;;
5684;SDS011;2865;53.114;9.130;2023-04-19T09:04:36;1.80;;;1.70;;
5684;SDS011;2865;53.114;9.130;2023-04-19T09:07:02;2.20;;;2.00;;
5684;SDS011;2865;53.114;9.130;2023-04-19T09:09:28;1.83;;;1.73;;
5684;SDS011;2865;53.114;9.130;2023-04-19T09:11:53;3.20;;;2.03;;
5684;SDS011;2865;53.114;9.130;2023-04-19T09:14:19;3.30;;;1.90;;
5684;SDS011;2865;53.114;9.130;2023-04-19T09:16:45;2.30;;;2.10;;
5684;SDS011;2865;53.114;9.130;2023-04-19T09:19:10;2.23;;;1.93;;
5684;SDS011;2865;53.114;9.130;2023-04-19T09:21:37;3.10;;;1.43;;
5684;SDS011;2865;53.114;9.130;2023-04-19T09:24:03;1.90;;;1.77;;
5684;SDS011;2865;53.114;9.130;2023-04-19T09:26:28;1.90;;;1.80;;
5684;SDS011;2865;53.114;9.130;2023-04-19T09:28:59;2.20;;;2.00;;
5684;SDS011;2865;53.114;9.130;2023-04-19T09:31:24;2.27;;;2.07;;
5684;SDS011;2865;53.114;9.130;2023-04-19T09:33:50;2.67;;;1.73;;
5684;SDS011;2865;53.114;9.130;2023-04-19T09:38:50;1.93;;;1.70;;
5684;SDS011;2865;53.114;9.130;2023-04-19T09:41:15;10.60;;;2.13;;
5684;SDS011;2865;53.114;9.130;2023-04-19T09:43:41;2.13;;;1.93;;
5684;SDS011;2865;53.114;9.130;2023-04-19T09:46:06;1.93;;;1.83;;
5684;SDS011;2865;53.114;9.130;2023-04-19T09:48:31;3.77;;;2.30;;
5684;SDS011;2865;53.114;9.130;2023-04-19T09:50:58;3.70;;;1.40;;
5684;SDS011;2865;53.114;9.130;2023-04-19T09:53:24;3.27;;;2.30;;
5684;SDS011;2865;53.114;9.130;2023-04-19T09:55:49;2.93;;;1.70;;
5684;SDS011;2865;53.114;9.130;2023-04-19T09:58:15;2.83;;;2.30;;
5684;SDS011;2865;53.114;9.130;2023-04-19T10:00:40;1.60;;;1.50;;
5684;SDS011;2865;53.114;9.130;2023-04-19T10:03:06;2.13;;;1.97;;
5684;SDS011;2865;53.114;9.130;2023-04-19T10:05:31;6.83;;;2.57;;
5684;SDS011;2865;53.114;9.130;2023-04-19T10:07:57;6.67;;;1.77;;
5684;SDS011;2865;53.114;9.130;2023-04-19T10:10:23;2.27;;;1.80;;
5684;SDS011;2865;53.114;9.130;2023-04-19T10:12:50;4.03;;;1.93;;
5684;SDS011;2865;53.114;9.130;2023-04-19T10:15:14;3.53;;;2.10;;
5684;SDS011;2865;53.114;9.130;2023-04-19T10:17:40;3.60;;;2.03;;
5684;SDS011;2865;53.114;9.130;2023-04-19T10:20:07;1.93;;;1.80;;
5684;SDS011;2865;53.114;9.130;2023-04-19T10:22:33;2.13;;;2.03;;
5684;SDS011;2865;53.114;9.130;2023-04-19T10:27:33;2.57;;;1.80;;
5684;SDS011;2865;53.114;9.130;2023-04-19T10:29:59;1.97;;;1.87;;
5684;SDS011;2865;53.114;9.130;2023-04-19T10:32:26;3.33;;;1.90;;
5684;SDS011;2865;53.114;9.130;2023-04-19T10:34:51;2.20;;;1.80;;
5684;SDS011;2865;53.114;9.130;2023-04-19T10:37:20;2.93;;;1.93;;
5684;SDS011;2865;53.114;9.130;2023-04-19T10:39:42;4.10;;;2.00;;
5684;SDS011;2865;53.114;9.130;2023-04-19T10:42:07;3.00;;;2.07;;
5684;SDS011;2865;53.114;9.130;2023-04-19T10:44:32;1.90;;;1.80;;
5684;SDS011;2865;53.114;9.130;2023-04-19T10:46:58;4.63;;;1.80;;
5684;SDS011;2865;53.114;9.130;2023-04-19T10:49:23;4.90;;;2.10;;
5684;SDS011;2865;53.114;9.130;2023-04-19T10:51:49;2.03;;;1.93;;
5684;SDS011;2865;53.114;9.130;2023-04-19T10:56:57;2.80;;;1.50;;
5684;SDS011;2865;53.114;9.130;2023-04-19T10:59:21;2.07;;;1.87;;
5684;SDS011;2865;53.114;9.130;2023-04-19T11:01:48;2.60;;;1.77;;
5684;SDS011;2865;53.114;9.130;2023-04-19T11:04:15;2.87;;;2.00;;
5684;SDS011;2865;53.114;9.130;2023-04-19T11:09:23;2.10;;;1.90;;
5684;SDS011;2865;53.114;9.130;2023-04-19T11:11:49;3.37;;;1.90;;
5684;SDS011;2865;53.114;9.130;2023-04-19T11:14:14;2.90;;;1.70;;
5684;SDS011;2865;53.114;9.130;2023-04-19T11:16:40;2.77;;;2.50;;
5684;SDS011;2865;53.114;9.130;2023-04-19T11:19:05;2.80;;;1.67;;
5684;SDS011;2865;53.114;9.130;2023-04-19T11:21:30;3.03;;;1.80;;
5684;SDS011;2865;53.114;9.130;2023-04-19T11:26:29;2.20;;;2.10;;
5684;SDS011;2865;53.114;9.130;2023-04-19T11:28:54;1.93;;;1.80;;
5684;SDS011;2865;53.114;9.130;2023-04-19T11:31:20;2.20;;;2.00;;
5684;SDS011;2865;53.114;9.130;2023-04-19T11:33:45;1.93;;;1.80;;
5684;SDS011;2865;53.114;9.130;2023-04-19T11:36:10;2.17;;;2.07;;
5684;SDS011;2865;53.114;9.130;2023-04-19T11:38:36;3.50;;;2.50;;
5684;SDS011;2865;53.114;9.130;2023-04-19T11:41:01;2.47;;;2.20;;
5684;SDS011;2865;53.114;9.130;2023-04-19T11:43:33;3.83;;;2.17;;
5684;SDS011;2865;53.114;9.130;2023-04-19T11:46:03;2.37;;;2.17;;
5684;SDS011;2865;53.114;9.130;2023-04-19T11:48:23;4.40;;;2.30;;
5684;SDS011;2865;53.114;9.130;2023-04-19T11:50:48;2.50;;;2.30;;
5684;SDS011;2865;53.114;9.130;2023-04-19T11:53:23;3.23;;;2.30;;
5684;SDS011;2865;53.114;9.130;2023-04-19T11:55:49;4.47;;;2.30;;
5684;SDS011;2865;53.114;9.130;2023-04-19T12:00:50;5.13;;;2.10;;
5684;SDS011;2865;53.114;9.130;2023-04-19T12:03:15;4.73;;;2.40;;
5684;SDS011;2865;53.114;9.130;2023-04-19T12:05:50;2.40;;;2.20;;
5684;SDS011;2865;53.114;9.130;2023-04-19T12:08:06;5.37;;;2.40;;
5684;SDS011;2865;53.114;9.130;2023-04-19T12:10:32;3.67;;;2.37;;
5684;SDS011;2865;53.114;9.130;2023-04-19T12:12:58;4.40;;;1.97;;
5684;SDS011;2865;53.114;9.130;2023-04-19T12:15:23;2.50;;;2.30;;
5684;SDS011;2865;53.114;9.130;2023-04-19T12:17:56;2.43;;;2.23;;
5684;SDS011;2865;53.114;9.130;2023-04-19T12:22:56;3.73;;;2.30;;
5684;SDS011;2865;53.114;9.130;2023-04-19T12:25:21;5.90;;;2.93;;
5684;SDS011;2865;53.114;9.130;2023-04-19T12:27:47;2.53;;;1.80;;
5684;SDS011;2865;53.114;9.130;2023-04-19T12:30:12;3.77;;;2.30;;
5684;SDS011;2865;53.114;9.130;2023-04-19T12:32:37;2.80;;;2.47;;
5684;SDS011;2865;53.114;9.130;2023-04-19T12:35:03;5.17;;;2.43;;
5684;SDS011;2865;53.114;9.130;2023-04-19T12:37:28;2.57;;;2.37;;
5684;SDS011;2865;53.114;9.130;2023-04-19T12:39:54;4.20;;;2.30;;
5684;SDS011;2865;53.114;9.130;2023-04-19T12:42:19;5.43;;;2.43;;
5684;SDS011;2865;53.114;9.130;2023-04-19T12:44:44;8.33;;;2.80;;
5684;SDS011;2865;53.114;9.130;2023-04-19T12:47:10;2.70;;;2.50;;
5684;SDS011;2865;53.114;9.130;2023-04-19T12:49:35;2.70;;;2.50;;
5684;SDS011;2865;53.114;9.130;2023-04-19T12:52:00;2.97;;;2.43;;
5684;SDS011;2865;53.114;9.130;2023-04-19T12:54:25;6.90;;;3.10;;
5684;SDS011;2865;53.114;9.130;2023-04-19T12:56:51;3.90;;;2.80;;
5684;SDS011;2865;53.114;9.130;2023-04-19T12:59:16;3.90;;;2.47;;
5684;SDS011;2865;53.114;9.130;2023-04-19T13:01:41;3.30;;;2.40;;
5684;SDS011;2865;53.114;9.130;2023-04-19T13:04:07;3.50;;;2.30;;
5684;SDS011;2865;53.114;9.130;2023-04-19T13:06:32;5.17;;;2.70;;
5684;SDS011;2865;53.114;9.130;2023-04-19T13:08:58;11.10;;;2.67;;
5684;SDS011;2865;53.114;9.130;2023-04-19T13:11:23;4.50;;;2.07;;
5684;SDS011;2865;53.114;9.130;2023-04-19T13:13:49;3.53;;;2.37;;
5684;SDS011;2865;53.114;9.130;2023-04-19T13:16:14;2.90;;;2.60;;
5684;SDS011;2865;53.114;9.130;2023-04-19T13:18:39;6.87;;;3.20;;
5684;SDS011;2865;53.114;9.130;2023-04-19T13:21:05;2.33;;;2.13;;
5684;SDS011;2865;53.114;9.130;2023-04-19T13:23:30;2.40;;;2.00;;
5684;SDS011;2865;53.114;9.130;2023-04-19T13:25:55;2.07;;;1.90;;
5684;SDS011;2865;53.114;9.130;2023-04-19T13:28:20;2.70;;;2.50;;
5684;SDS011;2865;53.114;9.130;2023-04-19T13:30:46;6.17;;;2.47;;
5684;SDS011;2865;53.114;9.130;2023-04-19T13:33:11;2.70;;;2.30;;
5684;SDS011;2865;53.114;9.130;2023-04-19T13:35:36;7.03;;;3.03;;
5684;SDS011;2865;53.114;9.130;2023-04-19T13:38:02;3.33;;;2.70;;
5684;SDS011;2865;53.114;9.130;2023-04-19T13:40:27;4.77;;;2.67;;
5684;SDS011;2865;53.114;9.130;2023-04-19T13:42:52;5.60;;;2.60;;
5684;SDS011;2865;53.114;9.130;2023-04-19T13:45:17;3.43;;;2.03;;
5684;SDS011;2865;53.114;9.130;2023-04-19T13:47:43;4.60;;;2.50;;
5684;SDS011;2865;53.114;9.130;2023-04-19T13:50:08;3.00;;;2.50;;
5684;SDS011;2865;53.114;9.130;2023-04-19T13:52:33;11.47;;;3.13;;
5684;SDS011;2865;53.114;9.130;2023-04-19T13:54:59;2.77;;;2.53;;
5684;SDS011;2865;53.114;9.130;2023-04-19T13:57:24;7.97;;;2.67;;
5684;SDS011;2865;53.114;9.130;2023-04-19T13:59:49;6.50;;;2.50;;
5684;SDS011;2865;53.114;9.130;2023-04-19T14:02:15;3.00;;;2.70;;
5684;SDS011;2865;53.114;9.130;2023-04-19T14:04:40;8.53;;;2.83;;
5684;SDS011;2865;53.114;9.130;2023-04-19T14:07:05;4.17;;;2.20;;
5684;SDS011;2865;53.114;9.130;2023-04-19T14:09:31;3.47;;;2.47;;
5684;SDS011;2865;53.114;9.130;2023-04-19T14:11:56;2.77;;;2.50;;
5684;SDS011;2865;53.114;9.130;2023-04-19T14:14:21;3.23;;;2.67;;
5684;SDS011;2865;53.114;9.130;2023-04-19T14:16:46;3.70;;;2.53;;
5684;SDS011;2865;53.114;9.130;2023-04-19T14:19:12;7.13;;;2.83;;
5684;SDS011;2865;53.114;9.130;2023-04-19T14:21:37;3.47;;;2.60;;
5684;SDS011;2865;53.114;9.130;2023-04-19T14:24:02;2.50;;;2.30;;
5684;SDS011;2865;53.114;9.130;2023-04-19T14:26:28;5.83;;;2.40;;
5684;SDS011;2865;53.114;9.130;2023-04-19T14:28:53;4.00;;;2.60;;
5684;SDS011;2865;53.114;9.130;2023-04-19T14:31:19;4.47;;;2.40;;
5684;SDS011;2865;53.114;9.130;2023-04-19T14:33:44;2.37;;;2.17;;
5684;SDS011;2865;53.114;9.130;2023-04-19T14:36:10;4.20;;;2.70;;
5684;SDS011;2865;53.114;9.130;2023-04-19T14:38:35;7.43;;;2.80;;
5684;SDS011;2865;53.114;9.130;2023-04-19T14:41:01;6.50;;;3.70;;
5684;SDS011;2865;53.114;9.130;2023-04-19T14:43:27;4.20;;;2.67;;
5684;SDS011;2865;53.114;9.130;2023-04-19T14:45:52;3.03;;;2.70;;
5684;SDS011;2865;53.114;9.130;2023-04-19T14:48:17;2.43;;;2.00;;
5684;SDS011;2865;53.114;9.130;2023-04-19T14:50:44;3.90;;;2.93;;
5684;SDS011;2865;53.114;9.130;2023-04-19T14:53:08;8.90;;;3.00;;
5684;SDS011;2865;53.114;9.130;2023-04-19T14:55:35;2.67;;;2.43;;
5684;SDS011;2865;53.114;9.130;2023-04-19T14:57:59;3.57;;;2.47;;
5684;SDS011;2865;53.114;9.130;2023-04-19T15:00:24;4.30;;;2.43;;
5684;SDS011;2865;53.114;9.130;2023-04-19T15:02:50;2.90;;;2.30;;
5684;SDS011;2865;53.114;9.130;2023-04-19T15:05:15;2.77;;;2.53;;
5684;SDS011;2865;53.114;9.130;2023-04-19T15:07:40;4.33;;;2.30;;
5684;SDS011;2865;53.114;9.130;2023-04-19T15:10:06;5.60;;;2.60;;
5684;SDS011;2865;53.114;9.130;2023-04-19T15:12:32;13.73;;;2.43;;
5684;SDS011;2865;53.114;9.130;2023-04-19T15:14:57;4.80;;;2.60;;
5684;SDS011;2865;53.114;9.130;2023-04-19T15:17:22;10.00;;;2.43;;
5684;SDS011;2865;53.114;9.130;2023-04-19T15:19:48;2.70;;;2.50;;
5684;SDS011;2865;53.114;9.130;2023-04-19T15:22:13;3.23;;;2.00;;